Latest Weather Observations for Kuitpo

IDS60901

Issued at 12:21 pm CST Tuesday 21 April 2015 (issued every 10 minutes, with the page automatically refreshed every 10 minutes)

About weather observations | Map of Adelaide area stations | Latest observations for Adelaide area | Other Formats
Station Details ID: 023887 Name: KUITPO FOREST RESERVE Lat: -35.17 Lon: 138.68 Height: 365.0 m
Data from the previous 72 hours. | See also: Recent months at Kuitpo
Date/Time
CST
Tmp

°C
App
Tmp
°C
Dew
Point
°C
Rel
Hum
%
Delta-T

°C
Wind Press
QNH
hPa
Press
MSL
hPa
Rain
since
9 am
mm
Dir
 
Spd
km/h
Gust
km/h
Spd
kts
Gust
kts
21/12:00pm 13.0 8.0 6.6 65 3.1 ESE 22 35 12 19 1031.2 1030.6 0.0
21/11:30am 12.6 8.3 6.9 68 2.8 ESE 19 32 10 17 1031.8 1031.3 0.0
21/11:00am 12.4 7.7 6.2 66 3.0 E 20 33 11 18 1032.3 1031.8 0.0
21/10:30am 11.3 6.0 6.8 74 2.2 ESE 24 33 13 18 1032.4 1031.9 0.0
21/10:00am 11.3 5.7 7.0 75 2.1 ESE 26 41 14 22 1032.7 1032.2 0.0
21/09:30am 11.1 6.1 8.1 82 1.5 ESE 24 35 13 19 1032.9 1032.4 0.0
21/09:00am 10.8 6.8 8.4 85 1.2 ESE 19 30 10 16 1033.1 1032.6 0.0
21/08:30am 9.7 5.6 8.6 93 0.5 E 20 30 11 16 1032.9 1032.4 0.0
21/08:00am 9.1 5.3 9.1 100 0.0 ESE 19 26 10 14 1032.7 1032.2 0.0
21/07:30am 8.3 4.7 8.3 100 0.0 ESE 17 24 9 13 1032.8 1032.3 0.0
21/07:00am 7.6 3.8 7.6 100 0.0 ESE 17 26 9 14 1032.4 1031.9 0.0
21/06:30am 7.6 3.8 7.6 100 0.0 ESE 17 24 9 13 1032.3 1031.8 0.0
21/06:00am 7.6 4.2 7.6 100 0.0 ESE 15 24 8 13 1032.2 1031.7 0.0
21/05:30am 7.8 4.1 7.8 100 0.0 ESE 17 32 9 17 1032.1 1031.6 0.0
21/05:00am 7.8 3.5 7.8 100 0.0 ESE 20 30 11 16 1032.1 1031.6 0.0
21/04:30am 7.7 3.0 7.7 100 0.0 ESE 22 32 12 17 1031.9 1031.4 0.0
21/04:00am 7.8 3.5 7.8 100 0.0 ESE 20 32 11 17 1031.9 1031.4 0.0
21/03:30am 7.7 3.3 7.6 99 0.0 ESE 20 33 11 18 1032.0 1031.5 0.0
21/03:00am 7.8 3.4 7.2 96 0.3 ESE 20 30 11 16 1032.1 1031.6 0.0
21/02:30am 8.0 3.5 6.8 92 0.6 ESE 20 37 11 20 1032.3 1031.8 0.0
21/02:00am 8.1 3.1 6.6 90 0.7 ESE 22 33 12 18 1032.6 1032.1 0.0
21/01:30am 8.3 3.0 6.6 89 0.8 ESE 24 41 13 22 1032.7 1032.2 0.0
21/01:00am 8.5 2.8 6.8 89 0.8 ESE 26 39 14 21 1032.8 1032.3 0.0
21/12:30am 8.8 2.8 6.9 88 0.9 ESE 28 50 15 27 1032.7 1032.2 0.0
21/12:06am 9.0 2.5 6.6 85 1.1 ESE 30 50 16 27 1032.7 1032.2 0.0
21/12:00am 9.1 2.2 6.4 83 1.3 ESE 32 46 17 25 1032.7 1032.2 0.0
 
Date/Time
CST
Tmp

°C
App
Tmp
°C
Dew
Point
°C
Rel
Hum
%
Delta-T

°C
Wind Press
QNH
hPa
Press
MSL
hPa
Rain
since
9 am
mm
Dir
 
Spd
km/h
Gust
km/h
Spd
kts
Gust
kts
20/11:33pm 9.3 2.8 6.6 83 1.3 ESE 30 48 16 26 1033.0 1032.5 0.0
20/11:30pm 9.4 2.9 6.5 82 1.4 ESE 30 44 16 24 1033.1 1032.6 0.0
20/11:12pm 9.5 3.6 7.3 86 1.1 ESE 28 46 15 25 1033.3 1032.8 0.0
20/11:00pm 9.5 3.7 7.9 90 0.8 ESE 28 44 15 24 1033.4 1032.9 0.0
20/10:37pm 9.7 4.1 8.6 93 0.5 SE 28 46 15 25 1033.7 1033.1 0.0
20/10:30pm 9.8 4.2 8.9 94 0.4 ESE 28 44 15 24 1033.8 1033.3 0.0
20/10:00pm 9.8 5.0 8.9 94 0.5 ESE 24 41 13 22 1034.0 1033.5 0.0
20/09:30pm 9.9 5.1 8.8 93 0.5 SE 24 39 13 21 1034.1 1033.6 0.0
20/09:00pm 9.7 5.8 9.6 99 0.1 SE 20 32 11 17 1034.2 1033.7 0.0
20/08:30pm 9.8 5.9 9.3 97 0.3 SE 20 33 11 18 1034.1 1033.6 0.0
20/08:00pm 9.8 6.0 9.0 95 0.4 SE 19 33 10 18 1034.1 1033.6 0.0
20/07:30pm 9.8 5.9 8.7 93 0.5 SE 19 35 10 19 1034.3 1033.8 0.0
20/07:00pm 9.7 5.8 8.8 94 0.5 SE 19 32 10 17 1034.3 1033.8 0.0
20/06:30pm 9.6 6.0 8.5 93 0.5 SE 17 28 9 15 1034.2 1033.7 0.0
20/06:00pm 9.8 6.1 8.1 89 0.8 SSE 17 30 9 16 1034.1 1033.6 0.0
20/05:30pm 10.1 6.2 7.0 81 1.5 SSE 17 35 9 19 1033.9 1033.4 0.0
20/05:00pm 10.7 6.6 6.3 74 2.1 SSE 17 30 9 16 1033.7 1033.1 0.0
20/04:30pm 11.0 5.4 5.5 69 2.6 SE 24 43 13 23 1033.7 1033.1 0.0
20/04:00pm 11.6 5.9 5.0 64 3.1 SE 24 39 13 21 1033.8 1033.3 0.0
20/03:30pm 12.0 6.6 4.7 61 3.4 SE 22 35 12 19 1034.0 1033.5 0.0
20/03:15pm 11.9 5.3 4.4 60 3.5 SE 28 46 15 25 1034.1 1033.6 0.0
20/03:00pm 12.2 6.4 4.2 58 3.7 SE 24 41 13 22 1034.0 1033.5 0.0
20/02:30pm 12.4 7.0 4.4 58 3.7 SE 22 39 12 21 1034.0 1033.5 0.0
20/02:00pm 12.2 6.8 4.4 59 3.6 SE 22 35 12 19 1034.0 1033.5 0.0
20/01:30pm 12.0 6.1 3.8 57 3.7 ESE 24 41 13 22 1034.3 1033.8 0.0
20/01:00pm 11.9 6.3 3.7 57 3.7 ESE 22 39 12 21 1034.7 1034.2 0.0
20/12:30pm 11.8 5.7 2.8 54 4.0 ESE 24 35 13 19 1035.2 1034.7 0.0
20/12:00pm 11.7 6.5 2.7 54 4.0 ESE 19 32 10 17 1035.8 1035.3 0.0
20/11:30am 11.3 5.9 2.6 55 3.8 ESE 20 35 11 19 1036.3 1035.9 0.0
20/11:00am 10.6 4.5 2.7 58 3.5 ESE 24 39 13 21 1036.7 1036.2 0.0
20/10:30am 10.9 4.9 3.2 59 3.4 ESE 24 37 13 20 1036.9 1036.4 0.0
20/10:00am 10.5 5.3 3.3 61 3.2 E 20 32 11 17 1037.0 1036.5 0.0
20/09:30am 9.7 4.4 2.8 62 3.0 E 20 33 11 18 1037.0 1036.5 0.0
20/09:00am 9.1 3.4 3.1 66 2.6 E 22 33 12 18 1037.1 1036.6 0.2
20/08:30am 8.2 3.1 2.9 69 2.3 E 19 24 10 13 1037.2 1036.7 0.2
20/08:00am 7.5 2.8 3.0 73 1.9 E 17 22 9 12 1037.0 1036.5 0.2
20/07:30am 6.2 1.4 2.7 78 1.5 E 17 22 9 12 1036.6 1036.1 0.2
20/07:00am 5.4 0.3 2.8 83 1.1 E 19 24 10 13 1036.2 1035.8 0.2
20/06:30am 5.0 0.3 3.0 87 0.8 E 17 22 9 12 1036.2 1035.8 0.2
20/06:00am 5.3 0.1 2.7 83 1.1 E 19 24 10 13 1036.1 1035.7 0.2
20/05:30am 5.4 0.1 2.9 84 1.0 E 20 24 11 13 1035.8 1035.3 0.2
20/05:00am 5.5 0.8 3.0 84 1.1 ESE 17 24 9 13 1035.7 1035.2 0.2
20/04:30am 5.9 0.8 3.1 82 1.2 E 19 24 10 13 1035.5 1035.0 0.2
20/04:00am 5.8 1.1 3.1 83 1.1 ESE 17 22 9 12 1035.5 1035.0 0.2
20/03:30am 6.0 0.9 3.0 81 1.3 ESE 19 26 10 14 1035.4 1034.9 0.2
20/03:00am 6.1 1.3 2.7 79 1.4 E 17 22 9 12 1035.4 1034.9 0.2
20/02:30am 6.3 1.2 3.3 81 1.3 E 19 26 10 14 1035.6 1035.1 0.2
20/02:00am 6.3 1.7 3.5 82 1.2 ESE 17 24 9 13 1035.6 1035.1 0.2
20/01:30am 6.7 1.6 3.1 78 1.5 ESE 19 26 10 14 1035.6 1035.1 0.2
20/01:00am 7.0 1.7 3.1 76 1.7 ESE 20 28 11 15 1035.4 1034.9 0.2
20/12:30am 7.1 1.9 3.5 78 1.5 ESE 20 28 11 15 1035.4 1034.9 0.2
20/12:00am 7.5 2.4 3.9 78 1.6 ESE 20 30 11 16 1035.6 1035.1 0.2
 
Date/Time
CST
Tmp

°C
App
Tmp
°C
Dew
Point
°C
Rel
Hum
%
Delta-T

°C
Wind Press
QNH
hPa
Press
MSL
hPa
Rain
since
9 am
mm
Dir
 
Spd
km/h
Gust
km/h
Spd
kts
Gust
kts
19/11:30pm 7.9 2.8 4.3 78 1.6 ESE 20 28 11 15 1035.5 1035.0 0.2
19/11:00pm 8.3 3.3 4.7 78 1.6 ESE 20 35 11 19 1035.6 1035.1 0.2
19/10:30pm 8.4 4.9 5.3 81 1.4 ESE 13 20 7 11 1035.6 1035.1 0.2
19/10:00pm 8.2 3.9 5.1 81 1.4 ESE 17 22 9 12 1035.5 1035.0 0.2
19/09:30pm 8.3 4.6 4.7 78 1.6 SE 13 22 7 12 1035.5 1035.0 0.2
19/09:00pm 8.5 4.1 4.7 77 1.7 SE 17 28 9 15 1035.2 1034.7 0.2
19/08:30pm 8.1 3.6 4.3 77 1.7 SE 17 24 9 13 1034.7 1034.2 0.2
19/08:00pm 8.2 4.2 5.1 81 1.4 SE 15 22 8 12 1034.6 1034.1 0.2
19/07:30pm 8.5 4.7 5.6 82 1.3 SE 15 24 8 13 1034.2 1033.7 0.2
19/07:00pm 8.9 5.1 5.8 81 1.4 SE 15 26 8 14 1034.1 1033.6 0.2
19/06:30pm 9.1 5.6 5.3 77 1.7 SSE 13 20 7 11 1033.7 1033.1 0.2
19/06:00pm 9.3 4.6 5.1 75 1.9 SE 19 30 10 16 1033.3 1032.8 0.2
19/05:30pm 9.5 5.5 4.7 72 2.2 SSE 15 24 8 13 1032.9 1032.4 0.2
19/05:00pm 9.7 6.1 4.9 72 2.2 SSE 13 24 7 13 1032.7 1032.2 0.2
19/04:30pm 10.6 5.7 4.9 68 2.6 SSE 20 32 11 17 1032.6 1032.1 0.2
19/04:00pm 11.1 6.4 5.0 66 2.8 SSE 19 32 10 17 1032.3 1031.8 0.2
19/03:30pm 11.4 7.0 4.6 63 3.1 SSE 17 30 9 16 1032.3 1031.8 0.2
19/03:00pm 11.6 6.6 4.8 63 3.1 SSE 20 33 11 18 1032.2 1031.7 0.2
19/02:30pm 12.8 9.1 6.2 64 3.2 SSE 15 32 8 17 1031.8 1031.3 0.2
19/02:00pm 12.2 7.5 5.1 62 3.3 SSE 19 32 10 17 1031.6 1031.1 0.2
19/01:30pm 12.2 7.4 4.7 60 3.5 SE 19 32 10 17 1031.5 1031.0 0.2
19/01:00pm 12.4 7.5 5.3 62 3.4 SSE 20 33 11 18 1031.5 1031.0 0.2
19/12:30pm 12.3 7.7 5.7 64 3.1 SE 19 30 10 16 1031.8 1031.3 0.2
19/12:00pm 9.8 6.3 8.6 92 0.6 SSE 17 28 9 15 1031.8 1031.3 0.2
19/11:30am 12.5 9.0 7.4 71 2.5 SSE 15 24 8 13 1031.9 1031.4 0.2
19/11:00am 11.0 6.8 7.3 78 1.8 ESE 19 28 10 15 1031.7 1031.2 0.2
19/10:30am 10.9 7.0 7.0 77 1.9 SSE 17 30 9 16 1031.6 1031.1 0.2
19/10:00am 8.7 4.3 7.5 92 0.6 SSE 20 32 11 17 1031.6 1031.1 0.2
19/09:30am 11.3 6.7 5.6 68 2.7 SSE 19 37 10 20 1031.2 1030.6 0.0
19/09:00am 10.2 6.1 6.0 75 2.0 SSE 17 26 9 14 1030.9 1030.3 7.0
19/08:30am 9.6 6.3 7.9 89 0.8 SSE 15 26 8 14 1030.2 1029.7 7.0
19/08:00am 8.4 5.9 6.4 87 0.9 S 9 13 5 7 1029.7 1029.2 7.0
19/07:30am 7.8 5.1 5.8 87 0.9 S 9 15 5 8 1028.9 1028.3 7.0
19/07:00am 7.6 4.2 6.1 90 0.7 SSE 13 19 7 10 1028.1 1027.5 7.0
19/06:30am 7.4 4.3 5.7 89 0.8 SSE 11 20 6 11 1027.6 1027.1 7.0
19/06:00am 7.2 4.2 6.0 92 0.5 S 11 17 6 9 1027.0 1026.5 7.0
19/05:30am 7.2 4.0 6.8 97 0.2 S 13 17 7 9 1026.7 1026.2 7.0
19/05:00am 7.8 3.9 7.2 96 0.3 S 17 30 9 16 1026.1 1025.5 7.0
19/04:30am 7.7 3.8 7.3 97 0.2 SSE 17 28 9 15 1025.6 1025.0 7.0
19/04:00am 7.8 4.4 7.5 98 0.1 S 15 24 8 13 1025.2 1024.6 7.0
19/03:30am 7.7 4.6 7.1 96 0.3 SSW 13 20 7 11 1025.0 1024.4 7.0
19/03:00am 7.5 4.2 6.4 93 0.5 S 13 17 7 9 1024.7 1024.2 7.0
19/02:30am 7.5 4.2 6.3 92 0.6 S 13 20 7 11 1024.6 1024.1 7.0
19/02:00am 7.8 4.5 6.3 90 0.7 SSW 13 24 7 13 1024.5 1024.0 7.0
19/01:30am 7.9 5.0 6.7 92 0.6 SSW 11 15 6 8 1024.3 1023.8 7.0
19/01:00am 8.1 4.8 6.4 89 0.8 SSW 13 22 7 12 1024.0 1023.4 6.8
19/12:30am 8.5 5.2 6.5 87 0.9 SSW 13 20 7 11 1023.8 1023.2 6.8
19/12:00am 8.7 4.7 6.5 86 1.0 SSW 17 24 9 13 1023.7 1023.1 6.8
 
Date/Time
CST
Tmp

°C
App
Tmp
°C
Dew
Point
°C
Rel
Hum
%
Delta-T

°C
Wind Press
QNH
hPa
Press
MSL
hPa
Rain
since
9 am
mm
Dir
 
Spd
km/h
Gust
km/h
Spd
kts
Gust
kts
18/11:30pm 8.7 4.5 7.6 93 0.5 SSW 19 32 10 17 1023.5 1022.9 6.8
18/11:00pm 8.7 5.7 7.9 95 0.4 SSW 13 17 7 9 1023.3 1022.7 6.8
18/10:30pm 9.6 6.8 8.5 93 0.5 SSW 13 22 7 12 1022.9 1022.3 6.8
18/10:00pm 9.6 7.1 9.6 100 0.0 SSW 13 22 7 12 1022.7 1022.1 6.8
18/09:30pm 9.6 6.3 9.6 100 0.0 SSW 17 24 9 13 1022.4 1021.8 6.8
18/09:00pm 9.3 6.3 9.3 100 0.0 SSW 15 24 8 13 1021.7 1021.1 6.8
18/08:30pm 9.7 6.4 9.7 100 0.0 SSW 17 24 9 13 1021.1 1020.5 6.8
18/08:00pm 9.3 5.9 9.3 100 0.0 SSW 17 20 9 11 1020.6 1020.0 6.8
18/07:30pm 9.5 6.6 9.5 100 0.0 SSW 15 20 8 11 1020.2 1019.6 6.8
18/07:00pm 9.5 6.9 9.5 100 0.0 SW 13 17 7 9 1019.6 1019.0 6.8
18/06:30pm 10.0 8.0 10.0 100 0.0 SW 11 17 6 9 1018.9 1018.3 6.8
18/06:00pm 10.1 7.3 10.1 100 0.0 SSW 15 24 8 13 1018.5 1017.9 6.8
18/05:30pm 10.6 7.6 10.6 100 0.0 SSW 17 24 9 13 1017.9 1017.3 6.6
18/05:00pm 10.7 8.9 10.7 100 0.0 SW 11 17 6 9 1017.4 1016.8 6.4
18/04:30pm 10.8 7.5 10.8 100 0.0 SW 19 32 10 17 1016.9 1016.2 5.6
18/04:00pm 11.7 8.6 11.7 100 0.0 SSW 19 26 10 14 1016.3 1015.6 5.2
18/03:30pm 12.5 9.7 12.5 100 0.0 SSW 19 30 10 16 1015.8 1015.2 4.4
18/03:00pm 13.8 11.2 13.8 100 0.0 W 20 33 11 18 1015.1 1014.5 2.6
18/02:30pm 14.5 12.3 14.5 100 0.0 WNW 19 32 10 17 1014.9 1014.3 1.2
18/02:00pm 14.7 11.7 14.7 100 0.0 WNW 24 35 13 19 1015.1 1014.5 0.8
18/01:30pm 14.7 12.0 14.7 100 0.0 WNW 22 37 12 20 1015.2 1014.6 0.8
18/01:00pm 14.0 10.3 14.0 100 0.0 WNW 26 43 14 23 1015.4 1014.8 0.8
18/12:30pm 14.5 11.4 14.5 100 0.0 WNW 24 39 13 21 1015.6 1015.0 0.4

Latest Capital City Observations: Canberra | Sydney | Melbourne | Brisbane | Adelaide | Perth | Hobart | Darwin

Other Formats:

Comma delimited format used in spreadsheet applications
http://www.bom.gov.au/fwo/IDS60901/IDS60901.94683.axf

JavaScript Object Notation format (JSON) in row-major order
http://www.bom.gov.au/fwo/IDS60901/IDS60901.94683.json